Fort Smith, AR

12:25 AM CST on March 06, 2015 (GMT -0600)
Fort Smith Regional | Change Station
CLOSE
Current Station
Airport
Location: Fort Smith,
Elevation: 463 ft
Nearby Weather Stations

Elev 463 ft 35.33 °N, 94.36 °W | Updated 32 minutes ago

Clear
Clear
28 °F
Feels Like 28 °F
N
0
Wind Variable Wind from North

Today
High -- | Low -- °F
--% Chance of Precip.
Yesterday
High -- | Low -- °F
Precip. -- in
6:41 AM 6:17 PM
Full, 100% visible
Pressure 30.58 in
Visibility 10.0 miles
Clouds Clear
Dew Point 22 °F
Humidity 78%
Rainfall 0.00 in
Snow Depth Not available.
UV 0 out of 12
Pollen 5.30 out of 12
Air Quality Not available.
Flu Activity Not available.
METAR KFSM 060553Z 00000KT 10SM CLR M02/M06 A3057 RMK AO2 SLP356 T10221056 10039 21028 400611078 50001

More Conditions Fewer Conditions

Pressure 30.58 in
Visibility 10.0 miles
Clouds Clear
Dew Point 22 °F
Humidity 78%
Rainfall 0.00 in
Snow Depth Not available.
UV 0 out of 12
Pollen 5.30 out of 12
Air Quality Not available.
Flu Activity Not available.
METAR KFSM 060553Z 00000KT 10SM CLR M02/M06 A3057 RMK AO2 SLP356 T10221056 10039 21028 400611078 50001

More Conditions Fewer Conditions

10-Day Weather Forecast

Almanac

Astronomy

Mar. 06, 2015 Rise Set
Actual Time
Civil Twilight
Nautical Twilight
Astronomical Twilight
Moon
Length of Visible Light
Length of Day
Tomorrow will be .
, % of the Moon is Illuminated

Today's Extremes

State Highs State Lows

Community

WunderPhotos

Upload Photos

1,803,195 photos uploaded!

WunderBlogs® & News

Nearby

Air Quality

  Air Quality AQ Index Pollutant
Not available.

Snow Depth

Station Depth Elevation

Earthquake Activity

City Distance Mag. Time & Date
Minimum magnitude displayed is 2.5.

Coastal Water Temperatures

Place Temperature

Nearby Weather Stations